createdAt,value
2022-10-07T00:00:56.728Z,2.17
2022-10-07T00:03:25.977Z,2.17
2022-10-07T00:06:16.874Z,2.22
2022-10-07T00:08:50.794Z,2.35
2022-10-07T00:11:24.831Z,2.63
2022-10-07T00:13:57.071Z,2.35
2022-10-07T00:16:28.121Z,2.05
2022-10-07T00:18:57.581Z,2.08
2022-10-07T00:21:27.565Z,2.40
2022-10-07T00:23:55.087Z,1.93
2022-10-07T00:26:27.494Z,2.42
2022-10-07T00:28:54.553Z,2.67
2022-10-07T00:31:25.393Z,2.08
2022-10-07T00:36:27.225Z,1.98
2022-10-07T00:39:05.641Z,2.60
2022-10-07T00:41:37.533Z,2.53
2022-10-07T00:44:31.938Z,2.40
2022-10-07T00:47:11.734Z,2.20
2022-10-07T00:50:09.520Z,2.13
2022-10-07T00:52:49.465Z,2.45
2022-10-07T00:55:25.068Z,2.15
2022-10-07T00:57:57.237Z,1.95
2022-10-07T01:00:24.221Z,2.30
2022-10-07T01:02:52.369Z,1.90
2022-10-07T01:05:20.363Z,2.17
2022-10-07T01:07:50.596Z,1.88
2022-10-07T01:10:21.689Z,2.78
2022-10-07T01:13:07.198Z,2.90
2022-10-07T01:15:44.618Z,2.10
2022-10-07T01:18:52.800Z,2.50
2022-10-07T01:21:54.484Z,2.13
2022-10-07T01:24:42.226Z,1.80
2022-10-07T01:27:36.838Z,2.08
2022-10-07T01:30:07.653Z,2.10
2022-10-07T01:35:18.138Z,1.85
2022-10-07T01:37:55.679Z,2.25
2022-10-07T01:40:32.047Z,2.28
2022-10-07T01:43:00.409Z,1.88
2022-10-07T01:45:30.998Z,2.60
2022-10-07T01:47:59.290Z,1.80
2022-10-07T01:50:30.073Z,1.50
2022-10-07T01:53:26.609Z,1.90
2022-10-07T01:56:27.254Z,2.20
2022-10-07T01:59:12.698Z,1.77
2022-10-07T02:01:55.019Z,2.10
2022-10-07T02:05:09.673Z,1.70
2022-10-07T02:08:10.007Z,1.98
2022-10-07T02:11:10.236Z,1.88
2022-10-07T02:13:55.919Z,2.00
2022-10-07T02:16:35.332Z,1.77
2022-10-07T02:19:11.133Z,2.30
2022-10-07T02:21:40.760Z,2.13
2022-10-07T02:24:12.110Z,2.05
2022-10-07T02:26:43.540Z,2.20
2022-10-07T02:29:13.577Z,2.17
2022-10-07T02:31:43.284Z,1.73
2022-10-07T02:34:20.020Z,2.00
2022-10-07T02:36:55.952Z,1.67
2022-10-07T02:39:22.802Z,1.90
2022-10-07T02:42:04.960Z,2.30
2022-10-07T02:44:42.942Z,1.92
2022-10-07T02:47:40.607Z,2.05
2022-10-07T02:50:13.666Z,2.05
2022-10-07T02:52:44.873Z,2.75
2022-10-07T02:55:19.185Z,1.92
2022-10-07T02:57:53.414Z,2.25
2022-10-07T03:00:20.487Z,1.83
2022-10-07T03:02:58.155Z,2.10
2022-10-07T03:05:26.363Z,1.90
2022-10-07T03:07:59.323Z,1.90
2022-10-07T03:10:26.904Z,1.85
2022-10-07T03:12:53.926Z,2.00
2022-10-07T03:15:22.277Z,2.30
2022-10-07T03:17:49.193Z,2.28
2022-10-07T03:20:16.534Z,2.05
2022-10-07T03:22:44.710Z,2.20
2022-10-07T03:25:12.787Z,2.05
2022-10-07T03:27:40.249Z,2.17
2022-10-07T03:30:08.214Z,2.45
2022-10-07T03:32:35.202Z,2.15
2022-10-07T03:35:02.034Z,2.33
2022-10-07T03:37:30.167Z,2.33
2022-10-07T03:39:56.991Z,2.60
2022-10-07T03:42:24.151Z,2.60
2022-10-07T03:44:52.290Z,2.28
2022-10-07T03:47:19.185Z,1.95
2022-10-07T03:49:45.968Z,2.33
2022-10-07T03:52:12.857Z,2.13
2022-10-07T03:54:39.687Z,2.22
2022-10-07T03:57:26.467Z,2.17
2022-10-07T03:59:53.576Z,2.33
2022-10-07T04:02:25.351Z,2.50
2022-10-07T04:04:54.708Z,1.85
2022-10-07T04:07:22.124Z,2.10
2022-10-07T04:09:49.190Z,2.17
2022-10-07T04:12:16.343Z,1.88
2022-10-07T04:14:43.211Z,2.08
2022-10-07T04:17:10.039Z,2.28
2022-10-07T04:19:37.128Z,1.50
2022-10-07T04:22:08.944Z,1.70
2022-10-07T04:24:36.423Z,2.38
2022-10-07T04:27:07.230Z,1.70
2022-10-07T04:29:38.991Z,1.80
2022-10-07T04:32:06.168Z,2.20
2022-10-07T04:34:32.983Z,2.20
2022-10-07T04:37:01.146Z,2.30
2022-10-07T04:39:48.985Z,2.17
2022-10-07T04:42:33.708Z,2.50
2022-10-07T04:45:00.498Z,2.30
2022-10-07T04:47:27.284Z,1.88
2022-10-07T04:49:54.366Z,2.30
2022-10-07T04:52:21.191Z,2.08
2022-10-07T04:54:47.985Z,2.97
2022-10-07T04:57:14.795Z,3.03
2022-10-07T04:59:42.971Z,2.63
2022-10-07T05:02:10.216Z,2.55
2022-10-07T05:04:37.112Z,2.80
2022-10-07T05:07:04.704Z,2.92
2022-10-07T05:09:31.475Z,3.15
2022-10-07T05:11:58.398Z,3.10
2022-10-07T05:14:25.233Z,3.88
2022-10-07T05:16:52.692Z,3.85
2022-10-07T05:19:20.098Z,4.35
2022-10-07T05:21:46.998Z,4.70
2022-10-07T05:24:13.814Z,4.35
2022-10-07T05:26:40.633Z,4.40
2022-10-07T05:29:07.508Z,4.70
2022-10-07T05:31:34.340Z,4.35
2022-10-07T05:34:02.891Z,4.93
2022-10-07T05:36:30.002Z,4.40
2022-10-07T05:39:00.142Z,5.63
2022-10-07T05:41:30.078Z,5.10
2022-10-07T05:43:56.983Z,5.63
2022-10-07T05:46:23.956Z,5.00
2022-10-07T05:48:53.588Z,6.15
2022-10-07T05:51:23.007Z,5.70
2022-10-07T05:53:54.509Z,5.57
2022-10-07T05:56:21.849Z,4.93
2022-10-07T05:58:50.278Z,5.68
2022-10-07T06:01:21.137Z,6.30
2022-10-07T06:06:25.919Z,5.35
2022-10-07T06:08:53.665Z,6.68
2022-10-07T06:11:39.847Z,6.40
2022-10-07T06:14:07.178Z,6.80
2022-10-07T06:16:34.099Z,6.20
2022-10-07T06:19:01.022Z,7.60
2022-10-07T06:21:28.441Z,7.72
2022-10-07T06:23:57.864Z,8.40
2022-10-07T06:26:24.843Z,9.20
2022-10-07T06:28:51.721Z,8.85
2022-10-07T06:31:22.664Z,9.18
2022-10-07T06:33:50.780Z,9.27
2022-10-07T06:36:18.632Z,9.07
2022-10-07T06:38:50.927Z,8.27
2022-10-07T06:41:18.634Z,9.10
2022-10-07T06:43:46.023Z,8.98
2022-10-07T06:46:19.356Z,8.30
2022-10-07T06:48:47.071Z,7.05
2022-10-07T06:51:20.480Z,8.63
2022-10-07T06:53:53.506Z,8.73
2022-10-07T06:56:20.957Z,7.13
2022-10-07T06:58:49.793Z,6.97
2022-10-07T07:01:17.334Z,6.40
2022-10-07T07:03:44.207Z,5.68
2022-10-07T07:06:11.226Z,6.03
2022-10-07T07:08:41.057Z,6.63
2022-10-07T07:11:31.100Z,6.20
2022-10-07T07:13:58.903Z,6.13
2022-10-07T07:16:26.132Z,7.22
2022-10-07T07:18:59.541Z,6.80
2022-10-07T07:21:28.800Z,8.50
2022-10-07T07:23:56.295Z,7.45
2022-10-07T07:26:23.701Z,6.88
2022-10-07T07:28:59.425Z,6.35
2022-10-07T07:31:29.567Z,6.82
2022-10-07T07:34:00.732Z,7.35
2022-10-07T07:36:30.302Z,8.45
2022-10-07T07:39:01.300Z,7.20
2022-10-07T07:41:32.638Z,6.25
2022-10-07T07:44:03.519Z,6.88
2022-10-07T07:49:04.012Z,6.72
2022-10-07T07:51:32.833Z,8.15
2022-10-07T07:53:59.894Z,7.40
2022-10-07T07:56:29.236Z,6.50
2022-10-07T07:58:56.713Z,7.70
2022-10-07T08:01:23.752Z,7.97
2022-10-07T08:03:51.087Z,7.65
2022-10-07T08:06:21.425Z,7.65
2022-10-07T08:08:48.942Z,6.57
2022-10-07T08:11:19.340Z,6.63
2022-10-07T08:13:47.359Z,6.95
2022-10-07T08:16:20.394Z,7.65
2022-10-07T08:18:51.001Z,6.72
2022-10-07T08:21:22.187Z,6.32
2022-10-07T08:23:54.218Z,6.70
2022-10-07T08:26:21.189Z,6.30
2022-10-07T08:28:49.066Z,6.07
2022-10-07T08:31:19.377Z,6.95
2022-10-07T08:33:49.332Z,6.68
2022-10-07T08:36:19.486Z,7.17
2022-10-07T08:38:49.956Z,5.55
2022-10-07T08:41:34.113Z,7.35
2022-10-07T08:44:17.028Z,7.43
2022-10-07T08:47:06.811Z,6.93
2022-10-07T08:50:09.785Z,8.65
2022-10-07T08:52:39.380Z,7.60
2022-10-07T08:55:19.114Z,8.55
2022-10-07T08:57:56.962Z,8.50
2022-10-07T09:00:24.886Z,6.78
2022-10-07T09:03:25.305Z,6.90
2022-10-07T09:05:55.643Z,6.47
2022-10-07T09:08:30.674Z,5.88
2022-10-07T09:11:15.733Z,6.78
2022-10-07T09:13:54.312Z,5.95
2022-10-07T09:16:32.859Z,5.95
2022-10-07T09:19:03.797Z,5.88
2022-10-07T09:21:51.146Z,6.90
2022-10-07T09:24:24.941Z,6.95
2022-10-07T09:26:57.195Z,6.85
2022-10-07T09:29:28.238Z,7.68
2022-10-07T09:31:57.962Z,7.35
2022-10-07T09:34:29.844Z,7.72
2022-10-07T09:37:16.797Z,8.35
2022-10-07T09:39:47.618Z,8.00
2022-10-07T09:44:57.484Z,6.63
2022-10-07T09:47:36.618Z,7.63
2022-10-07T09:50:04.565Z,7.68
2022-10-07T09:52:32.680Z,8.18
2022-10-07T09:55:43.251Z,8.30
2022-10-07T09:58:28.949Z,7.18
2022-10-07T10:01:02.003Z,7.63
2022-10-07T10:03:32.552Z,7.28
2022-10-07T10:08:38.440Z,6.40
2022-10-07T10:11:28.426Z,7.60
2022-10-07T10:13:55.463Z,7.15
2022-10-07T10:16:25.949Z,7.82
2022-10-07T10:19:03.865Z,7.32
2022-10-07T10:21:41.370Z,7.57
2022-10-07T10:24:15.756Z,7.25
2022-10-07T10:27:03.162Z,7.63
2022-10-07T10:30:05.494Z,7.43
2022-10-07T10:33:04.425Z,7.13
2022-10-07T10:36:20.835Z,7.53
2022-10-07T10:39:04.092Z,8.02
2022-10-07T10:41:52.012Z,6.72
2022-10-07T10:44:36.459Z,6.93
2022-10-07T10:47:30.324Z,7.13
2022-10-07T10:50:17.863Z,6.60
2022-10-07T10:52:53.407Z,7.43
2022-10-07T10:55:44.422Z,7.07
2022-10-07T10:58:53.319Z,6.80
2022-10-07T11:02:00.627Z,5.95
2022-10-07T11:04:59.752Z,7.68
2022-10-07T11:08:11.405Z,7.40
2022-10-07T11:10:53.330Z,5.93
2022-10-07T11:13:36.912Z,7.20
2022-10-07T11:16:31.112Z,6.05
2022-10-07T11:19:20.690Z,6.70
2022-10-07T11:21:54.940Z,6.28
2022-10-07T11:24:50.619Z,5.90
2022-10-07T11:27:29.631Z,7.53
2022-10-07T11:30:22.121Z,6.10
2022-10-07T11:33:08.105Z,7.00
2022-10-07T11:35:49.045Z,6.40
2022-10-07T11:38:27.733Z,6.45
2022-10-07T11:41:19.829Z,6.88
2022-10-07T11:43:56.851Z,7.10
2022-10-07T11:46:40.904Z,7.53
2022-10-07T11:49:21.878Z,7.60
2022-10-07T11:54:38.624Z,6.47
2022-10-07T11:57:05.913Z,7.13
2022-10-07T11:59:48.106Z,6.40
2022-10-07T12:02:30.211Z,6.13
2022-10-07T12:05:02.684Z,6.82
2022-10-07T12:07:43.093Z,7.40
2022-10-07T12:10:23.250Z,7.10
2022-10-07T12:12:57.059Z,5.97
2022-10-07T12:15:42.105Z,5.70
2022-10-07T12:18:10.465Z,5.68
2022-10-07T12:20:53.021Z,5.97
2022-10-07T12:23:20.195Z,6.38
2022-10-07T12:26:00.404Z,5.53
2022-10-07T12:28:36.457Z,5.57
2022-10-07T12:31:26.179Z,7.05
2022-10-07T12:33:58.559Z,6.75
2022-10-07T12:36:29.287Z,6.53
2022-10-07T12:41:40.065Z,5.97
2022-10-07T12:44:48.790Z,7.22
2022-10-07T12:47:29.873Z,6.38
2022-10-07T12:50:07.320Z,7.72
2022-10-07T12:52:40.401Z,7.60
2022-10-07T12:55:15.240Z,7.07
2022-10-07T12:57:52.456Z,6.95
2022-10-07T13:00:25.032Z,7.15
2022-10-07T13:03:29.305Z,6.93
2022-10-07T13:06:14.151Z,6.07
2022-10-07T13:09:37.213Z,7.63
2022-10-07T13:12:51.534Z,6.50
2022-10-07T13:15:41.442Z,6.82
2022-10-07T13:18:23.695Z,7.97
2022-10-07T13:21:41.508Z,6.88
2022-10-07T13:24:20.648Z,7.88
2022-10-07T13:26:47.677Z,7.78
2022-10-07T13:29:33.380Z,7.75
2022-10-07T13:32:28.067Z,7.55
2022-10-07T13:34:54.958Z,8.43
2022-10-07T13:37:34.182Z,7.90
2022-10-07T13:40:21.224Z,8.23
2022-10-07T13:43:07.964Z,7.78
2022-10-07T13:45:45.084Z,7.18
2022-10-07T13:48:20.951Z,7.57
2022-10-07T13:50:50.794Z,7.75
2022-10-07T13:53:25.294Z,8.50
2022-10-07T13:56:26.086Z,7.55
2022-10-07T13:58:55.987Z,7.63
2022-10-07T14:01:28.734Z,7.53
2022-10-07T14:04:21.331Z,7.95
2022-10-07T14:07:12.205Z,7.43
2022-10-07T14:09:59.235Z,7.32
2022-10-07T14:12:47.968Z,7.93
2022-10-07T14:15:21.688Z,6.63
2022-10-07T14:18:14.567Z,7.00
2022-10-07T14:20:57.288Z,6.68
2022-10-07T14:23:34.245Z,6.57
2022-10-07T14:26:05.466Z,6.45
2022-10-07T14:28:35.347Z,6.30
2022-10-07T14:31:26.603Z,5.10
2022-10-07T14:34:33.382Z,4.95
2022-10-07T14:37:28.463Z,5.82
2022-10-07T14:39:58.566Z,5.72
2022-10-07T14:42:30.437Z,5.72
2022-10-07T14:44:58.441Z,6.65
2022-10-07T14:47:28.311Z,6.50
2022-10-07T14:49:59.426Z,5.60
2022-10-07T14:52:47.638Z,5.50
2022-10-07T14:55:23.647Z,5.47
2022-10-07T14:57:50.522Z,5.05
2022-10-07T15:00:24.721Z,5.28
2022-10-07T15:02:53.134Z,4.55
2022-10-07T15:05:20.609Z,5.15
2022-10-07T15:07:47.615Z,5.53
2022-10-07T15:10:23.439Z,4.65
2022-10-07T15:12:50.365Z,5.18
2022-10-07T15:15:18.153Z,4.72
2022-10-07T15:17:45.457Z,5.25
2022-10-07T15:20:15.374Z,4.20
2022-10-07T15:22:43.432Z,4.60
2022-10-07T15:25:12.620Z,5.15
2022-10-07T15:27:40.018Z,5.15
2022-10-07T15:30:07.969Z,4.72
2022-10-07T15:32:34.864Z,5.35
2022-10-07T15:35:02.036Z,4.78
2022-10-07T15:37:29.038Z,5.45
2022-10-07T15:39:55.896Z,5.22
2022-10-07T15:42:26.376Z,5.05
2022-10-07T15:44:53.894Z,5.32
2022-10-07T15:47:20.842Z,4.88
2022-10-07T15:49:49.071Z,5.70
2022-10-07T15:52:16.606Z,5.80
2022-10-07T15:54:46.563Z,5.18
2022-10-07T15:57:14.460Z,5.22
2022-10-07T15:59:42.192Z,4.60
2022-10-07T16:02:16.699Z,5.57
2022-10-07T16:04:45.545Z,5.43
2022-10-07T16:07:12.415Z,6.35
2022-10-07T16:09:39.504Z,5.50
2022-10-07T16:12:07.062Z,6.45
2022-10-07T16:14:34.199Z,5.82
2022-10-07T16:17:01.091Z,6.20
2022-10-07T16:19:27.903Z,5.70
2022-10-07T16:21:54.700Z,5.85
2022-10-07T16:24:22.773Z,5.70
2022-10-07T16:26:55.436Z,5.85
2022-10-07T16:29:42.499Z,5.95
2022-10-07T16:32:11.358Z,5.10
2022-10-07T16:34:43.282Z,5.40
2022-10-07T16:37:11.781Z,5.50
2022-10-07T16:39:38.762Z,5.18
2022-10-07T16:42:06.540Z,4.82
2022-10-07T16:44:33.503Z,5.20
2022-10-07T16:47:01.141Z,5.22
2022-10-07T16:49:30.127Z,5.38
2022-10-07T16:51:58.097Z,5.13
2022-10-07T16:54:25.551Z,5.78
2022-10-07T16:56:52.964Z,6.00
2022-10-07T16:59:24.100Z,5.70
2022-10-07T17:01:56.828Z,6.00
2022-10-07T17:04:24.970Z,6.05
2022-10-07T17:06:53.250Z,5.50
2022-10-07T17:09:22.022Z,6.60
2022-10-07T17:11:48.956Z,6.38
2022-10-07T17:14:19.032Z,6.78
2022-10-07T17:16:52.581Z,6.30
2022-10-07T17:19:22.982Z,6.10
2022-10-07T17:21:51.681Z,6.18
2022-10-07T17:24:21.855Z,5.82
2022-10-07T17:26:50.014Z,5.20
2022-10-07T17:29:21.085Z,5.88
2022-10-07T17:31:50.573Z,6.22
2022-10-07T17:34:20.557Z,6.38
2022-10-07T17:36:48.552Z,7.05
2022-10-07T17:39:17.124Z,7.63
2022-10-07T17:41:44.083Z,6.85
2022-10-07T17:44:12.188Z,6.68
2022-10-07T17:46:40.910Z,7.07
2022-10-07T17:49:13.168Z,6.53
2022-10-07T17:51:42.578Z,5.70
2022-10-07T17:54:11.966Z,6.65
2022-10-07T17:56:38.934Z,6.65
2022-10-07T17:59:05.889Z,7.75
2022-10-07T18:01:35.807Z,6.97
2022-10-07T18:04:06.755Z,10.50
2022-10-07T18:06:37.026Z,11.80
2022-10-07T18:09:09.208Z,11.27
2022-10-07T18:11:55.650Z,11.98
2022-10-07T18:14:42.294Z,12.90
2022-10-07T18:17:10.744Z,14.48
2022-10-07T18:19:39.649Z,10.18
2022-10-07T18:22:07.077Z,10.07
2022-10-07T18:24:33.992Z,8.85
2022-10-07T18:27:02.775Z,7.68
2022-10-07T18:29:33.694Z,7.22
2022-10-07T18:34:27.955Z,5.53
2022-10-07T18:36:57.056Z,6.80
2022-10-07T18:39:27.575Z,7.32
2022-10-07T18:41:54.736Z,6.35
2022-10-07T18:44:21.905Z,8.27
2022-10-07T18:46:48.827Z,7.43
2022-10-07T18:49:15.733Z,6.90
2022-10-07T18:51:43.459Z,7.68
2022-10-07T18:54:11.191Z,7.93
2022-10-07T18:56:41.026Z,8.93
2022-10-07T18:59:09.957Z,8.95
2022-10-07T19:01:37.689Z,8.55
2022-10-07T19:04:06.479Z,7.38
2022-10-07T19:06:38.092Z,8.25
2022-10-07T19:09:09.191Z,7.97
2022-10-07T19:11:36.200Z,8.02
2022-10-07T19:14:03.650Z,8.48
2022-10-07T19:16:39.436Z,7.35
2022-10-07T19:19:08.589Z,8.50
2022-10-07T19:21:36.118Z,7.57
2022-10-07T19:24:04.679Z,7.85
2022-10-07T19:26:38.623Z,7.55
2022-10-07T19:29:09.014Z,7.55
2022-10-07T19:31:42.520Z,9.45
2022-10-07T19:34:14.241Z,9.57
2022-10-07T19:36:46.906Z,9.38
2022-10-07T19:39:21.394Z,8.30
2022-10-07T19:41:48.739Z,8.55
2022-10-07T19:44:16.554Z,8.05
2022-10-07T19:46:44.104Z,8.20
2022-10-07T19:49:11.926Z,7.45
2022-10-07T19:51:40.302Z,7.45
2022-10-07T19:54:10.003Z,7.35
2022-10-07T19:56:39.256Z,7.40
2022-10-07T19:59:12.639Z,9.23
2022-10-07T20:01:45.363Z,8.60
2022-10-07T20:04:17.588Z,8.40
2022-10-07T20:06:45.166Z,8.23
2022-10-07T20:09:17.134Z,7.63
2022-10-07T20:11:44.299Z,7.43
2022-10-07T20:14:11.253Z,7.90
2022-10-07T20:16:39.217Z,8.35
2022-10-07T20:19:15.387Z,8.27
2022-10-07T20:21:42.844Z,7.55
2022-10-07T20:24:14.448Z,7.40
2022-10-07T20:26:43.712Z,7.78
2022-10-07T20:29:12.022Z,7.72
2022-10-07T20:31:41.403Z,8.63
2022-10-07T20:34:18.644Z,7.70
2022-10-07T20:36:45.705Z,9.00
2022-10-07T20:39:39.084Z,10.05
2022-10-07T20:42:21.929Z,8.60
2022-10-07T20:44:50.455Z,8.70
2022-10-07T20:47:19.423Z,8.75
2022-10-07T20:49:48.545Z,8.88
2022-10-07T20:52:22.154Z,8.85
2022-10-07T20:54:50.051Z,8.63
2022-10-07T20:57:24.152Z,8.65
2022-10-07T20:59:51.769Z,8.68
2022-10-07T21:02:21.594Z,8.23
2022-10-07T21:04:48.713Z,9.57
2022-10-07T21:07:18.040Z,8.43
2022-10-07T21:09:45.864Z,8.63
2022-10-07T21:12:16.861Z,7.85
2022-10-07T21:14:44.385Z,8.20
2022-10-07T21:17:12.200Z,8.93
2022-10-07T21:19:39.986Z,8.85
2022-10-07T21:22:07.844Z,7.75
2022-10-07T21:24:34.991Z,8.65
2022-10-07T21:27:07.677Z,8.93
2022-10-07T21:29:40.196Z,8.18
2022-10-07T21:32:09.842Z,8.70
2022-10-07T21:34:37.915Z,7.85
2022-10-07T21:37:04.968Z,8.93
2022-10-07T21:39:32.262Z,7.75
2022-10-07T21:41:59.811Z,7.97
2022-10-07T21:44:27.530Z,7.13
2022-10-07T21:46:54.508Z,6.97
2022-10-07T21:49:21.376Z,7.13
2022-10-07T21:51:48.283Z,6.93
2022-10-07T21:54:15.426Z,7.13
2022-10-07T21:56:45.852Z,6.78
2022-10-07T21:59:14.038Z,6.88
2022-10-07T22:01:42.398Z,7.13
2022-10-07T22:04:17.349Z,7.53
2022-10-07T22:07:03.767Z,8.70
2022-10-07T22:09:31.349Z,7.60
2022-10-07T22:11:58.518Z,7.70
2022-10-07T22:14:25.389Z,7.78
2022-10-07T22:16:52.141Z,6.85
2022-10-07T22:19:19.004Z,7.18
2022-10-07T22:21:46.152Z,6.45
2022-10-07T22:24:14.125Z,6.03
2022-10-07T22:26:46.142Z,5.90
2022-10-07T22:29:16.097Z,6.30
2022-10-07T22:31:43.974Z,6.80
2022-10-07T22:34:34.216Z,6.93
2022-10-07T22:37:01.733Z,7.20
2022-10-07T22:39:29.349Z,6.13
2022-10-07T22:41:57.737Z,6.60
2022-10-07T22:44:27.974Z,6.45
2022-10-07T22:46:56.654Z,5.75
2022-10-07T22:49:27.320Z,6.05
2022-10-07T22:51:58.135Z,6.20
2022-10-07T22:54:25.664Z,5.72
2022-10-07T22:56:52.508Z,5.65
2022-10-07T22:59:19.347Z,5.70
2022-10-07T23:01:46.194Z,6.25
2022-10-07T23:04:13.050Z,6.90
2022-10-07T23:06:39.825Z,5.88
2022-10-07T23:09:06.672Z,6.68
2022-10-07T23:11:33.579Z,6.55
2022-10-07T23:14:00.440Z,7.10
2022-10-07T23:16:29.768Z,7.63
2022-10-07T23:18:58.524Z,6.97
2022-10-07T23:21:29.382Z,6.60
2022-10-07T23:26:34.435Z,5.32
2022-10-07T23:29:01.911Z,6.82
2022-10-07T23:31:31.789Z,5.65
2022-10-07T23:34:01.355Z,6.80
2022-10-07T23:36:29.691Z,6.85
2022-10-07T23:38:59.994Z,7.13
2022-10-07T23:41:30.485Z,7.13
2022-10-07T23:44:00.476Z,7.43
2022-10-07T23:46:29.310Z,6.97
2022-10-07T23:48:56.267Z,6.85
2022-10-07T23:51:26.624Z,6.45
2022-10-07T23:53:56.370Z,6.95
2022-10-07T23:56:23.479Z,7.10
2022-10-07T23:58:50.245Z,6.18
